Tocsin, Indiana
Current Conditions -  °F | °C
As of 1:54 PM on Saturday 25 Oct 2014 (Local Time) from KFWA Reporting Station
Few Clouds Few Clouds  
Wind Chill: 70°   Ceiling: Unl
Heat Index: 70°   Visibility: 10mi
Dew Point: 52°   Wind: 17mph
Humidity: 53%   Direction: 280°W
Pressure: 29.9"   Gusts: 24mph
Location:  40.8661°N, 85.1531°W
Report Text: KFWA 251754Z 28015G21KT 10SM FEW120 21/11 A2990 RMK AO2 SLP123 T02110111 10211 20117 58008
Loading
Personal Weather Stations






























Interactive Weather Map
Tropical Storm Tracking
New forecast layout! Learn more

10-Day Weather Forecast

Advertisements
Track Severe Weather on mobile